createdAt,value
2022-12-15T00:01:26.649Z,1.57
2022-12-15T00:03:53.069Z,1.20
2022-12-15T00:06:19.909Z,1.60
2022-12-15T00:08:46.156Z,1.03
2022-12-15T00:11:13.587Z,1.37
2022-12-15T00:13:39.688Z,1.87
2022-12-15T00:16:05.906Z,1.10
2022-12-15T00:18:31.930Z,1.57
2022-12-15T00:20:57.865Z,1.63
2022-12-15T00:23:28.463Z,1.50
2022-12-15T00:25:55.033Z,1.30
2022-12-15T00:28:22.729Z,1.87
2022-12-15T00:30:49.734Z,1.33
2022-12-15T00:33:16.519Z,1.43
2022-12-15T00:35:42.559Z,1.63
2022-12-15T00:38:08.739Z,1.67
2022-12-15T00:40:17.498Z,1.07
2022-12-15T00:42:26.514Z,1.30
2022-12-15T00:44:37.313Z,1.67
2022-12-15T00:46:57.335Z,1.70
2022-12-15T00:49:25.892Z,1.43
2022-12-15T00:51:51.918Z,1.37
2022-12-15T00:54:18.364Z,1.50
2022-12-15T00:56:44.495Z,1.37
2022-12-15T00:59:10.833Z,1.33
2022-12-15T01:01:38.382Z,1.60
2022-12-15T01:04:04.905Z,1.57
2022-12-15T01:06:32.122Z,1.53
2022-12-15T01:08:58.326Z,1.70
2022-12-15T01:11:24.385Z,1.63
2022-12-15T01:13:50.554Z,1.77
2022-12-15T01:16:17.041Z,1.20
2022-12-15T01:18:44.475Z,2.17
2022-12-15T01:20:58.359Z,1.30
2022-12-15T01:23:06.915Z,1.50
2022-12-15T01:25:16.213Z,1.77
2022-12-15T01:27:24.687Z,1.33
2022-12-15T01:29:33.226Z,1.13
2022-12-15T01:31:41.820Z,2.00
2022-12-15T01:33:54.916Z,2.10
2022-12-15T01:36:03.633Z,1.63
2022-12-15T01:38:12.805Z,1.70
2022-12-15T01:40:40.176Z,1.60
2022-12-15T01:42:48.925Z,1.30
2022-12-15T01:45:12.157Z,1.57
2022-12-15T01:47:22.769Z,1.40
2022-12-15T01:49:34.282Z,2.10
2022-12-15T01:51:44.824Z,2.73
2022-12-15T01:53:56.007Z,4.27
2022-12-15T01:56:05.708Z,4.50
2022-12-15T01:58:15.544Z,3.80
2022-12-15T02:00:24.180Z,3.63
2022-12-15T02:02:38.282Z,2.67
2022-12-15T02:04:51.213Z,2.20
2022-12-15T02:07:00.253Z,1.60
2022-12-15T02:09:09.395Z,2.10
2022-12-15T02:11:32.255Z,1.80
2022-12-15T02:13:46.368Z,1.70
2022-12-15T02:16:00.849Z,1.87
2022-12-15T02:18:12.890Z,1.80
2022-12-15T02:20:39.738Z,1.80
2022-12-15T02:23:06.979Z,1.30
2022-12-15T02:25:25.019Z,1.50
2022-12-15T02:27:45.768Z,1.30
2022-12-15T02:30:07.572Z,1.80
2022-12-15T02:32:17.542Z,1.70
2022-12-15T02:34:30.157Z,1.53
2022-12-15T02:36:40.880Z,1.70
2022-12-15T02:38:49.516Z,1.13
2022-12-15T02:41:00.340Z,1.30
2022-12-15T02:43:10.465Z,1.30
2022-12-15T02:45:22.433Z,1.60
2022-12-15T02:47:34.987Z,1.73
2022-12-15T02:49:49.801Z,1.63
2022-12-15T02:52:07.812Z,2.00
2022-12-15T02:54:33.995Z,1.47
2022-12-15T02:56:46.527Z,2.10
2022-12-15T02:59:00.844Z,1.83
2022-12-15T03:01:14.419Z,1.63
2022-12-15T03:03:24.361Z,1.47
2022-12-15T03:05:34.043Z,1.40
2022-12-15T03:07:43.192Z,1.70
2022-12-15T03:09:51.945Z,1.60
2022-12-15T03:12:01.273Z,1.77
2022-12-15T03:14:10.410Z,1.73
2022-12-15T03:16:21.177Z,1.30
2022-12-15T03:18:29.923Z,1.57
2022-12-15T03:20:38.595Z,1.63
2022-12-15T03:22:47.445Z,1.20
2022-12-15T03:24:56.883Z,1.33
2022-12-15T03:27:06.158Z,1.37
2022-12-15T03:29:15.645Z,1.10
2022-12-15T03:31:25.808Z,1.37
2022-12-15T03:33:35.530Z,1.60
2022-12-15T03:35:44.570Z,1.30
2022-12-15T03:37:53.645Z,1.53
2022-12-15T03:40:03.053Z,1.50
2022-12-15T03:42:11.791Z,0.93
2022-12-15T03:44:21.502Z,1.00
2022-12-15T03:46:32.028Z,1.67
2022-12-15T03:48:41.006Z,1.13
2022-12-15T03:50:50.743Z,1.20
2022-12-15T03:53:00.030Z,1.47
2022-12-15T03:55:10.554Z,0.90
2022-12-15T03:57:19.464Z,0.73
2022-12-15T03:59:28.475Z,0.67
2022-12-15T04:01:39.005Z,1.10
2022-12-15T04:03:48.144Z,1.10
2022-12-15T04:05:57.264Z,0.97
2022-12-15T04:08:06.700Z,1.33
2022-12-15T04:10:16.051Z,0.73
2022-12-15T04:12:24.774Z,0.87
2022-12-15T04:14:33.440Z,1.20
2022-12-15T04:16:44.449Z,1.10
2022-12-15T04:19:13.158Z,0.83
2022-12-15T04:21:20.764Z,0.83
2022-12-15T04:23:29.946Z,1.07
2022-12-15T04:25:56.970Z,0.77
2022-12-15T04:28:23.653Z,1.20
2022-12-15T04:30:49.969Z,0.90
2022-12-15T04:33:18.705Z,1.23
2022-12-15T04:35:44.916Z,1.50
2022-12-15T04:38:16.308Z,0.75
2022-12-15T04:40:42.865Z,0.80
2022-12-15T04:43:09.481Z,0.90
2022-12-15T04:45:36.742Z,0.60
2022-12-15T04:48:03.596Z,0.97
2022-12-15T04:50:31.512Z,0.93
2022-12-15T04:52:58.010Z,0.97
2022-12-15T04:55:24.822Z,1.10
2022-12-15T04:57:51.069Z,1.17
2022-12-15T05:00:17.369Z,0.83
2022-12-15T05:02:43.625Z,1.20
2022-12-15T05:05:10.093Z,1.20
2022-12-15T05:07:38.009Z,1.10
2022-12-15T05:10:06.268Z,0.93
2022-12-15T05:12:35.690Z,1.40
2022-12-15T05:15:02.189Z,1.10
2022-12-15T05:17:28.834Z,1.10
2022-12-15T05:19:55.523Z,1.05
2022-12-15T05:22:22.076Z,1.40
2022-12-15T05:24:49.559Z,1.03
2022-12-15T05:27:15.986Z,1.45
2022-12-15T05:29:42.104Z,2.03
2022-12-15T05:31:55.473Z,1.77
2022-12-15T05:34:05.760Z,0.80
2022-12-15T05:36:15.009Z,1.20
2022-12-15T05:38:24.047Z,1.27
2022-12-15T05:40:34.583Z,1.25
2022-12-15T05:42:43.170Z,0.80
2022-12-15T05:44:58.703Z,1.30
2022-12-15T05:47:08.277Z,0.83
2022-12-15T05:49:17.903Z,1.20
2022-12-15T05:51:26.848Z,1.27
2022-12-15T05:53:35.533Z,0.60
2022-12-15T05:55:45.882Z,0.80
2022-12-15T05:57:55.084Z,1.10
2022-12-15T06:00:03.731Z,1.00
2022-12-15T06:02:13.061Z,1.33
2022-12-15T06:04:21.944Z,1.20
2022-12-15T06:06:31.336Z,1.05
2022-12-15T06:08:40.919Z,1.60
2022-12-15T06:10:56.096Z,0.83
2022-12-15T06:13:05.407Z,1.40
2022-12-15T06:15:14.103Z,1.53
2022-12-15T06:17:22.716Z,1.43
2022-12-15T06:19:31.380Z,1.20
2022-12-15T06:21:40.370Z,1.30
2022-12-15T06:23:49.943Z,1.63
2022-12-15T06:26:00.390Z,2.03
2022-12-15T06:28:09.006Z,2.27
2022-12-15T06:30:19.419Z,2.45
2022-12-15T06:32:28.812Z,2.47
2022-12-15T06:34:37.485Z,3.70
2022-12-15T06:36:46.407Z,2.60
2022-12-15T06:38:55.143Z,3.40
2022-12-15T06:41:06.654Z,1.90
2022-12-15T06:43:15.648Z,2.80
2022-12-15T06:45:24.671Z,2.30
2022-12-15T06:47:33.236Z,2.20
2022-12-15T06:49:42.067Z,2.10
2022-12-15T06:51:51.162Z,2.67
2022-12-15T06:54:00.387Z,1.90
2022-12-15T06:56:25.748Z,2.23
2022-12-15T06:58:39.390Z,1.60
2022-12-15T07:00:48.482Z,2.73
2022-12-15T07:02:57.787Z,2.53
2022-12-15T07:05:07.435Z,2.07
2022-12-15T07:07:17.736Z,2.15
2022-12-15T07:09:27.996Z,2.72
2022-12-15T07:11:38.459Z,3.97
2022-12-15T07:13:50.917Z,2.30
2022-12-15T07:16:01.052Z,2.70
2022-12-15T07:18:10.552Z,2.42
2022-12-15T07:20:22.863Z,2.20
2022-12-15T07:22:35.920Z,2.05
2022-12-15T07:24:44.996Z,1.57
2022-12-15T07:26:55.830Z,2.50
2022-12-15T07:29:04.872Z,3.40
2022-12-15T07:31:13.943Z,2.80
2022-12-15T07:33:22.617Z,4.57
2022-12-15T07:35:31.345Z,3.77
2022-12-15T07:37:40.526Z,2.47
2022-12-15T07:39:50.644Z,2.85
2022-12-15T07:42:01.178Z,2.60
2022-12-15T07:44:10.897Z,3.40
2022-12-15T07:46:19.849Z,1.80
2022-12-15T07:48:29.761Z,2.22
2022-12-15T07:50:40.144Z,1.97
2022-12-15T07:52:49.273Z,2.50
2022-12-15T07:54:57.956Z,2.05
2022-12-15T07:57:09.142Z,2.67
2022-12-15T07:59:17.739Z,2.97
2022-12-15T08:01:26.502Z,3.47
2022-12-15T08:03:35.907Z,2.75
2022-12-15T08:05:45.282Z,3.23
2022-12-15T08:07:54.151Z,3.93
2022-12-15T08:10:02.770Z,3.90
2022-12-15T08:12:13.520Z,3.37
2022-12-15T08:14:22.524Z,4.40
2022-12-15T08:16:32.024Z,4.57
2022-12-15T08:18:40.935Z,4.50
2022-12-15T08:20:50.357Z,4.50
2022-12-15T08:22:59.207Z,3.90
2022-12-15T08:25:08.172Z,3.90
2022-12-15T08:27:18.707Z,3.50
2022-12-15T08:31:56.445Z,3.50
2022-12-15T08:34:05.507Z,4.57
2022-12-15T08:36:15.022Z,3.63
2022-12-15T08:38:23.748Z,3.77
2022-12-15T08:40:32.672Z,3.57
2022-12-15T08:42:43.368Z,4.43
2022-12-15T08:44:52.037Z,3.53
2022-12-15T08:47:00.768Z,4.20
2022-12-15T08:49:10.290Z,3.77
2022-12-15T08:51:19.360Z,4.20
2022-12-15T08:53:31.611Z,3.40
2022-12-15T08:55:41.005Z,4.50
2022-12-15T08:57:51.543Z,4.50
2022-12-15T09:00:00.896Z,6.47
2022-12-15T09:02:10.099Z,8.37
2022-12-15T09:04:19.900Z,6.57
2022-12-15T09:06:30.369Z,8.67
2022-12-15T09:08:39.132Z,10.30
2022-12-15T09:10:47.879Z,5.40
2022-12-15T09:13:02.941Z,5.77
2022-12-15T09:15:12.731Z,6.60
2022-12-15T09:17:21.733Z,7.37
2022-12-15T09:19:30.633Z,6.57
2022-12-15T09:21:40.064Z,4.83
2022-12-15T09:23:52.259Z,5.30
2022-12-15T09:26:04.110Z,5.23
2022-12-15T09:28:14.411Z,5.37
2022-12-15T09:30:23.127Z,5.00
2022-12-15T09:32:32.552Z,4.33
2022-12-15T09:34:41.730Z,3.97
2022-12-15T09:36:50.679Z,3.77
2022-12-15T09:39:00.045Z,3.03
2022-12-15T09:41:10.357Z,3.73
2022-12-15T09:43:44.554Z,10.83
2022-12-15T09:45:55.063Z,9.23
2022-12-15T09:48:06.434Z,9.13
2022-12-15T09:50:16.590Z,9.57
2022-12-15T09:52:27.565Z,12.60
2022-12-15T09:54:36.831Z,6.90
2022-12-15T09:56:49.760Z,8.57
2022-12-15T09:59:04.054Z,9.50
2022-12-15T10:01:15.704Z,5.87
2022-12-15T10:03:44.090Z,5.47
2022-12-15T10:06:16.630Z,3.13
2022-12-15T10:08:30.949Z,4.03
2022-12-15T10:10:44.049Z,3.77
2022-12-15T10:13:02.071Z,4.47
2022-12-15T10:15:19.172Z,5.23
2022-12-15T10:17:29.705Z,2.97
2022-12-15T10:19:41.493Z,4.40
2022-12-15T10:21:51.059Z,4.83
2022-12-15T10:24:00.939Z,5.50
2022-12-15T10:26:20.534Z,5.40
2022-12-15T10:28:46.801Z,5.00
2022-12-15T10:31:02.448Z,4.83
2022-12-15T10:33:13.903Z,4.97
2022-12-15T10:35:24.420Z,5.40
2022-12-15T10:37:33.093Z,4.93
2022-12-15T10:39:43.125Z,5.83
2022-12-15T10:42:06.700Z,6.17
2022-12-15T10:44:32.082Z,5.50
2022-12-15T10:46:42.577Z,5.97
2022-12-15T10:48:52.559Z,5.83
2022-12-15T10:51:10.907Z,7.17
2022-12-15T10:53:36.617Z,6.57
2022-12-15T10:55:50.124Z,6.77
2022-12-15T10:58:01.036Z,6.87
2022-12-15T11:00:29.339Z,8.03
2022-12-15T11:02:39.950Z,6.70
2022-12-15T11:04:57.074Z,6.60
2022-12-15T11:07:06.395Z,6.77
2022-12-15T11:09:27.499Z,7.37
2022-12-15T11:11:54.737Z,6.63
2022-12-15T11:14:08.525Z,8.30
2022-12-15T11:16:18.236Z,8.07
2022-12-15T11:18:32.967Z,10.77
2022-12-15T11:20:43.033Z,10.67
2022-12-15T11:22:54.685Z,10.37
2022-12-15T11:25:07.771Z,12.47
2022-12-15T11:27:20.970Z,11.10
2022-12-15T11:29:34.916Z,8.40
2022-12-15T11:31:45.350Z,8.37
2022-12-15T11:34:00.655Z,8.40
2022-12-15T11:36:14.347Z,9.40
2022-12-15T11:38:26.012Z,8.80
2022-12-15T11:40:40.262Z,8.63
2022-12-15T11:42:57.562Z,8.37
2022-12-15T11:45:11.213Z,8.10
2022-12-15T11:47:22.004Z,9.77
2022-12-15T11:49:41.464Z,9.70
2022-12-15T11:51:54.749Z,7.33
2022-12-15T11:54:15.211Z,8.13
2022-12-15T11:56:29.051Z,7.43
2022-12-15T11:58:56.033Z,8.07
2022-12-15T12:01:11.233Z,8.00
2022-12-15T12:03:27.603Z,7.07
2022-12-15T12:05:44.791Z,9.50
2022-12-15T12:07:55.627Z,11.23
2022-12-15T12:10:07.549Z,9.37
2022-12-15T12:12:20.297Z,11.00
2022-12-15T12:14:34.950Z,10.47
2022-12-15T12:16:49.485Z,11.67
2022-12-15T12:19:00.405Z,9.20
2022-12-15T12:21:12.658Z,8.03
2022-12-15T12:23:24.934Z,7.70
2022-12-15T12:25:36.271Z,7.43
2022-12-15T12:30:19.910Z,7.63
2022-12-15T12:32:32.575Z,8.40
2022-12-15T12:34:51.133Z,7.70
2022-12-15T12:37:07.277Z,7.63
2022-12-15T12:39:20.521Z,7.60
2022-12-15T12:41:35.715Z,7.83
2022-12-15T12:43:50.177Z,7.63
2022-12-15T12:46:01.715Z,7.60
2022-12-15T12:48:15.180Z,8.03
2022-12-15T12:50:26.208Z,8.57
2022-12-15T12:52:37.331Z,7.67
2022-12-15T12:54:50.570Z,7.77
2022-12-15T12:56:59.319Z,8.77
2022-12-15T12:59:28.334Z,7.70
2022-12-15T13:01:39.060Z,7.17
2022-12-15T13:03:48.749Z,7.93
2022-12-15T13:05:57.704Z,7.30
2022-12-15T13:08:21.493Z,9.23
2022-12-15T13:10:30.522Z,8.90
2022-12-15T13:15:26.285Z,8.03
2022-12-15T13:17:40.313Z,8.60
2022-12-15T13:20:10.753Z,8.63
2022-12-15T13:22:25.517Z,7.97
2022-12-15T13:24:37.667Z,8.00
2022-12-15T13:26:48.703Z,7.97
2022-12-15T13:28:58.847Z,7.47
2022-12-15T13:31:38.697Z,9.13
2022-12-15T13:33:52.789Z,7.53
2022-12-15T13:36:01.798Z,8.07
2022-12-15T13:38:16.954Z,7.87
2022-12-15T13:40:34.235Z,7.43
2022-12-15T13:42:53.160Z,8.60
2022-12-15T13:45:20.614Z,7.70
2022-12-15T13:47:30.752Z,7.50
2022-12-15T13:49:47.547Z,6.30
2022-12-15T13:52:03.770Z,6.67
2022-12-15T13:54:16.210Z,7.57
2022-12-15T13:56:43.817Z,7.83
2022-12-15T13:58:56.828Z,8.70
2022-12-15T14:01:05.942Z,9.10
2022-12-15T14:03:14.967Z,8.30
2022-12-15T14:05:26.361Z,7.37
2022-12-15T14:07:38.836Z,8.07
2022-12-15T14:09:52.021Z,7.17
2022-12-15T14:12:02.747Z,8.13
2022-12-15T14:14:18.444Z,8.03
2022-12-15T14:16:28.367Z,8.07
2022-12-15T14:18:40.317Z,7.83
2022-12-15T14:20:49.774Z,6.40
2022-12-15T14:22:58.866Z,7.33
2022-12-15T14:25:14.941Z,7.73
2022-12-15T14:27:24.562Z,8.23
2022-12-15T14:29:35.183Z,7.30
2022-12-15T14:31:46.761Z,8.00
2022-12-15T14:34:01.148Z,7.37
2022-12-15T14:36:12.300Z,7.50
2022-12-15T14:38:23.837Z,7.77
2022-12-15T14:40:33.631Z,8.43
2022-12-15T14:42:43.896Z,7.20
2022-12-15T14:44:58.085Z,7.77
2022-12-15T14:47:08.531Z,7.47
2022-12-15T14:49:20.964Z,7.20
2022-12-15T14:51:44.161Z,7.37
2022-12-15T14:53:54.167Z,6.80
2022-12-15T14:56:14.717Z,7.50
2022-12-15T14:58:37.233Z,6.60
2022-12-15T15:00:52.162Z,7.73
2022-12-15T15:03:04.933Z,7.50
2022-12-15T15:03:11.431Z,8.30
2022-12-15T15:05:29.783Z,7.90
2022-12-15T15:07:39.432Z,9.00
2022-12-15T15:09:48.304Z,8.30
2022-12-15T15:11:58.742Z,7.97
2022-12-15T15:14:10.471Z,9.17
2022-12-15T15:16:22.014Z,9.07
2022-12-15T15:18:31.672Z,9.30
2022-12-15T15:20:40.501Z,10.00
2022-12-15T15:22:50.228Z,7.13
2022-12-15T15:25:02.495Z,10.43
2022-12-15T15:27:26.774Z,11.77
2022-12-15T15:29:39.759Z,13.83
2022-12-15T15:31:54.829Z,16.43
2022-12-15T15:34:03.807Z,11.93
2022-12-15T15:36:14.045Z,10.07
2022-12-15T15:38:25.049Z,8.53
2022-12-15T15:40:33.521Z,9.90
2022-12-15T15:42:42.324Z,10.20
2022-12-15T15:44:51.363Z,9.50
2022-12-15T15:47:02.363Z,9.90
2022-12-15T15:49:11.841Z,10.50
2022-12-15T15:51:20.786Z,8.90
2022-12-15T15:53:32.317Z,9.63
2022-12-15T15:55:41.120Z,9.27
2022-12-15T15:57:50.116Z,10.30
2022-12-15T15:59:59.337Z,10.30
2022-12-15T16:02:11.497Z,9.57
2022-12-15T16:04:20.819Z,10.03
2022-12-15T16:06:29.464Z,9.17
2022-12-15T16:08:39.137Z,8.03
2022-12-15T16:10:48.575Z,8.53
2022-12-15T16:12:58.211Z,7.53
2022-12-15T16:15:10.991Z,8.23
2022-12-15T16:17:21.494Z,7.33
2022-12-15T16:19:33.742Z,6.23
2022-12-15T16:21:45.623Z,5.30
2022-12-15T16:23:55.087Z,5.40
2022-12-15T16:26:04.083Z,6.57
2022-12-15T16:28:14.359Z,5.83
2022-12-15T16:30:24.772Z,4.57
2022-12-15T16:32:34.847Z,2.93
2022-12-15T16:34:43.557Z,2.67
2022-12-15T16:36:52.509Z,2.20
2022-12-15T16:39:01.377Z,2.67
2022-12-15T16:41:13.872Z,3.13
2022-12-15T16:43:23.588Z,2.53
2022-12-15T16:45:33.211Z,3.03
2022-12-15T16:47:43.442Z,3.40
2022-12-15T16:49:52.834Z,5.40
2022-12-15T16:52:04.278Z,6.30
2022-12-15T16:54:17.832Z,4.77
2022-12-15T16:56:26.934Z,5.00
2022-12-15T16:58:37.358Z,1.97
2022-12-15T17:00:46.459Z,6.90
2022-12-15T17:02:57.244Z,6.60
2022-12-15T17:05:06.622Z,3.33
2022-12-15T17:07:20.042Z,3.40
2022-12-15T17:09:30.126Z,2.77
2022-12-15T17:11:39.372Z,2.60
2022-12-15T17:13:51.240Z,1.53
2022-12-15T17:16:00.485Z,3.30
2022-12-15T17:18:12.604Z,1.27
2022-12-15T17:20:30.943Z,2.33
2022-12-15T17:22:40.772Z,1.90
2022-12-15T17:24:49.438Z,0.67
2022-12-15T17:26:58.298Z,3.43
2022-12-15T17:29:09.709Z,3.73
2022-12-15T17:31:20.231Z,4.63
2022-12-15T17:33:32.378Z,3.40
2022-12-15T17:35:41.596Z,1.70
2022-12-15T17:37:50.222Z,1.87
2022-12-15T17:39:59.826Z,2.23
2022-12-15T17:42:14.259Z,2.20
2022-12-15T17:44:32.956Z,1.07
2022-12-15T17:46:43.603Z,2.47
2022-12-15T17:48:53.922Z,1.93
2022-12-15T17:51:02.979Z,2.03
2022-12-15T17:53:13.969Z,2.63
2022-12-15T17:55:27.907Z,3.43
2022-12-15T17:57:39.069Z,2.23
2022-12-15T17:59:47.694Z,1.57
2022-12-15T18:01:57.435Z,0.50
2022-12-15T18:04:08.555Z,1.07
2022-12-15T18:06:18.112Z,1.47
2022-12-15T18:08:27.980Z,0.60
2022-12-15T18:10:38.839Z,3.43
2022-12-15T18:12:47.923Z,3.47
2022-12-15T18:14:58.320Z,2.87
2022-12-15T18:17:09.691Z,1.63
2022-12-15T18:19:25.597Z,2.20
2022-12-15T18:21:37.743Z,1.60
2022-12-15T18:23:48.124Z,1.70
2022-12-15T18:26:02.710Z,1.47
2022-12-15T18:28:22.693Z,1.23
2022-12-15T18:30:31.927Z,1.30
2022-12-15T18:32:42.242Z,1.73
2022-12-15T18:34:52.571Z,3.53
2022-12-15T18:37:01.104Z,2.63
2022-12-15T18:39:17.642Z,4.73
2022-12-15T18:41:26.189Z,18.27
2022-12-15T18:43:36.181Z,2.53
2022-12-15T18:45:45.427Z,7.83
2022-12-15T18:47:54.845Z,3.87
2022-12-15T18:50:05.185Z,1.50
2022-12-15T18:52:18.152Z,1.43
2022-12-15T18:54:27.082Z,2.00
2022-12-15T18:56:36.389Z,1.20
2022-12-15T18:58:45.622Z,1.30
2022-12-15T19:00:55.198Z,1.07
2022-12-15T19:03:04.285Z,3.30
2022-12-15T19:05:28.017Z,2.83
2022-12-15T19:07:37.708Z,4.13
2022-12-15T19:09:46.599Z,4.23
2022-12-15T19:12:12.643Z,4.40
2022-12-15T19:14:35.128Z,3.30
2022-12-15T19:17:06.510Z,4.00
2022-12-15T19:19:32.947Z,3.97
2022-12-15T19:22:01.107Z,3.67
2022-12-15T19:24:13.083Z,3.77
2022-12-15T19:26:22.224Z,4.27
2022-12-15T19:28:31.014Z,3.97
2022-12-15T19:30:42.330Z,4.33
2022-12-15T19:32:51.434Z,4.80
2022-12-15T19:35:01.050Z,3.77
2022-12-15T19:37:15.860Z,4.60
2022-12-15T19:39:26.110Z,3.47
2022-12-15T19:41:36.143Z,2.90
2022-12-15T19:43:45.861Z,2.90
2022-12-15T19:45:54.582Z,2.90
2022-12-15T19:48:03.701Z,3.43
2022-12-15T19:50:15.722Z,2.57
2022-12-15T19:52:26.301Z,2.77
2022-12-15T19:54:35.014Z,3.43
2022-12-15T19:56:44.255Z,3.30
2022-12-15T19:58:52.842Z,4.43
2022-12-15T20:01:02.846Z,4.73
2022-12-15T20:03:11.633Z,4.93
2022-12-15T20:05:20.815Z,5.60
2022-12-15T20:07:32.148Z,4.27
2022-12-15T20:09:41.483Z,3.73
2022-12-15T20:11:50.681Z,5.50
2022-12-15T20:14:08.810Z,4.33
2022-12-15T20:16:25.532Z,3.90
2022-12-15T20:18:34.654Z,3.60
2022-12-15T20:20:45.182Z,3.60
2022-12-15T20:22:56.691Z,3.57
2022-12-15T20:25:05.638Z,3.53
2022-12-15T20:27:14.829Z,3.83
2022-12-15T20:29:25.441Z,3.87
2022-12-15T20:31:34.839Z,4.03
2022-12-15T20:33:51.022Z,3.37
2022-12-15T20:36:09.493Z,4.23
2022-12-15T20:41:05.946Z,6.27
2022-12-15T20:43:22.609Z,6.83
2022-12-15T20:45:39.242Z,6.77
2022-12-15T20:47:54.570Z,5.43
2022-12-15T20:50:12.715Z,6.37
2022-12-15T20:52:27.290Z,5.00
2022-12-15T20:54:46.453Z,4.00
2022-12-15T20:56:57.469Z,4.07
2022-12-15T20:59:06.371Z,4.67
2022-12-15T21:01:20.220Z,4.03
2022-12-15T21:03:35.923Z,4.57
2022-12-15T21:05:52.110Z,4.13
2022-12-15T21:08:04.934Z,4.80
2022-12-15T21:10:20.540Z,5.40
2022-12-15T21:12:41.576Z,5.07
2022-12-15T21:14:59.488Z,5.80
2022-12-15T21:17:21.162Z,4.30
2022-12-15T21:19:36.636Z,4.53
2022-12-15T21:21:59.529Z,7.82
2022-12-15T21:24:18.817Z,7.77
2022-12-15T21:26:27.869Z,6.43
2022-12-15T21:28:38.059Z,6.93
2022-12-15T21:30:46.901Z,6.88
2022-12-15T21:33:03.081Z,7.30
2022-12-15T21:35:22.876Z,6.22
2022-12-15T21:37:39.864Z,4.25
2022-12-15T21:39:54.548Z,4.80
2022-12-15T21:42:08.211Z,5.23
2022-12-15T21:44:28.743Z,5.80
2022-12-15T21:46:38.199Z,4.90
2022-12-15T21:49:16.364Z,5.33
2022-12-15T21:51:25.254Z,6.67
2022-12-15T21:53:34.399Z,6.60
2022-12-15T21:55:43.381Z,6.45
2022-12-15T21:57:52.527Z,6.77
2022-12-15T22:00:03.007Z,8.00
2022-12-15T22:02:24.414Z,9.30
2022-12-15T22:04:35.083Z,7.00
2022-12-15T22:06:50.383Z,6.07
2022-12-15T22:08:59.979Z,5.35
2022-12-15T22:11:18.696Z,5.13
2022-12-15T22:13:27.948Z,5.97
2022-12-15T22:15:41.815Z,5.45
2022-12-15T22:17:50.796Z,4.32
2022-12-15T22:20:00.142Z,4.45
2022-12-15T22:22:08.956Z,4.40
2022-12-15T22:24:17.883Z,3.90
2022-12-15T22:26:29.516Z,4.87
2022-12-15T22:28:39.096Z,4.57
2022-12-15T22:30:49.790Z,5.73
2022-12-15T22:33:00.050Z,3.03
2022-12-15T22:35:14.243Z,4.90
2022-12-15T22:37:23.738Z,4.33
2022-12-15T22:39:32.677Z,5.70
2022-12-15T22:41:42.369Z,5.05
2022-12-15T22:43:52.717Z,4.70
2022-12-15T22:46:02.830Z,5.22
2022-12-15T22:48:13.348Z,4.37
2022-12-15T22:50:23.719Z,5.33
2022-12-15T22:52:34.916Z,6.90
2022-12-15T22:54:46.018Z,2.40
2022-12-15T22:56:58.605Z,1.23
2022-12-15T22:59:09.451Z,4.83
2022-12-15T23:01:19.745Z,4.30
2022-12-15T23:03:31.053Z,5.07
2022-12-15T23:05:44.441Z,6.17
2022-12-15T23:07:53.451Z,5.50
2022-12-15T23:10:20.098Z,6.00
2022-12-15T23:12:29.184Z,4.17
2022-12-15T23:14:55.424Z,4.32
2022-12-15T23:17:05.594Z,4.30
2022-12-15T23:19:24.128Z,5.70
2022-12-15T23:21:33.201Z,4.97
2022-12-15T23:23:42.144Z,7.17
2022-12-15T23:25:50.833Z,6.50
2022-12-15T23:27:59.558Z,7.67
2022-12-15T23:30:09.730Z,9.10
2022-12-15T23:32:20.230Z,7.97
2022-12-15T23:34:28.816Z,6.40
2022-12-15T23:36:38.008Z,5.80
2022-12-15T23:38:46.972Z,4.30
2022-12-15T23:40:56.840Z,5.27
2022-12-15T23:43:05.515Z,5.57
2022-12-15T23:45:15.697Z,4.00
2022-12-15T23:47:25.771Z,4.00
2022-12-15T23:49:34.709Z,3.65
2022-12-15T23:51:43.836Z,3.90
2022-12-15T23:53:52.864Z,2.97
2022-12-15T23:56:09.307Z,3.80
2022-12-15T23:58:18.329Z,2.10
